EWG6B ENBR-EDDK
Flight info
| Callsign | EWG6B |
|---|---|
| Flight time | 1h 40m |
| Altitude | 37000 |
| Route | TINIG DCT DOSUR DCT LARBU Z189 RUNER T858 KOPAG KOPAG1G |
| Aircraft | A320/M-SDE3FGHIRWY/LB1 |
Departure
| Time | 2026-04-30 09:29 |
|---|---|
| Airport | Bergen Airport, Flesland (ENBR) |
Arrival
| Time | 2026-04-30 11:09 |
|---|---|
| Airport | Cologne Bonn Airport (EDDK) |
| Time | Latitude | Longitude | Altitude | Speed | Heading |
|---|---|---|---|---|---|
| 2026-04-30 08:48 | 60.28965 | 5.22581 | 175 ft | 0 kts | 133° |
| 2026-04-30 09:18 | 60.28977 | 5.22553 | 175 ft | 4 kts | 129° |
| 2026-04-30 09:19 | 60.28994 | 5.22511 | 175 ft | 4 kts | 133° |
| 2026-04-30 09:19 | 60.29011 | 5.22480 | 175 ft | 4 kts | 160° |
| 2026-04-30 09:19 | 60.29032 | 5.22485 | 176 ft | 4 kts | 233° |
| 2026-04-30 09:19 | 60.29043 | 5.22525 | 176 ft | 1 kts | 253° |
| 2026-04-30 09:20 | 60.29043 | 5.22526 | 176 ft | 0 kts | 253° |
| 2026-04-30 09:21 | 60.29042 | 5.22523 | 176 ft | 0 kts | 253° |
| 2026-04-30 09:22 | 60.29042 | 5.22519 | 176 ft | 3 kts | 255° |
| 2026-04-30 09:22 | 60.29035 | 5.22424 | 176 ft | 8 kts | 264° |
| 2026-04-30 09:22 | 60.29067 | 5.22353 | 177 ft | 6 kts | 351° |
| 2026-04-30 09:22 | 60.29117 | 5.22337 | 179 ft | 10 kts | 351° |
| 2026-04-30 09:23 | 60.29199 | 5.22309 | 176 ft | 14 kts | 349° |
| 2026-04-30 09:23 | 60.29320 | 5.22265 | 168 ft | 21 kts | 349° |
| 2026-04-30 09:23 | 60.29403 | 5.22205 | 162 ft | 9 kts | 295° |
| 2026-04-30 09:23 | 60.29451 | 5.22101 | 158 ft | 14 kts | 349° |
| 2026-04-30 09:24 | 60.29558 | 5.22062 | 154 ft | 18 kts | 348° |
| 2026-04-30 09:24 | 60.29674 | 5.22024 | 151 ft | 12 kts | 351° |
| 2026-04-30 09:24 | 60.29767 | 5.21993 | 149 ft | 15 kts | 351° |
| 2026-04-30 09:24 | 60.29859 | 5.21963 | 152 ft | 12 kts | 351° |
| 2026-04-30 09:25 | 60.29933 | 5.21938 | 155 ft | 12 kts | 351° |
| 2026-04-30 09:25 | 60.30031 | 5.21903 | 159 ft | 14 kts | 350° |
| 2026-04-30 09:25 | 60.30124 | 5.21871 | 163 ft | 12 kts | 351° |
| 2026-04-30 09:25 | 60.30193 | 5.21849 | 166 ft | 8 kts | 351° |
| 2026-04-30 09:26 | 60.30254 | 5.21830 | 169 ft | 12 kts | 351° |
| 2026-04-30 09:26 | 60.30337 | 5.21802 | 173 ft | 11 kts | 350° |
| 2026-04-30 09:26 | 60.30423 | 5.21772 | 177 ft | 15 kts | 350° |
| 2026-04-30 09:26 | 60.30524 | 5.21739 | 181 ft | 14 kts | 351° |
| 2026-04-30 09:27 | 60.30609 | 5.21712 | 189 ft | 8 kts | 351° |
| 2026-04-30 09:27 | 60.30656 | 5.21653 | 182 ft | 10 kts | 298° |
| 2026-04-30 09:27 | 60.30654 | 5.21481 | 178 ft | 15 kts | 259° |
| 2026-04-30 09:27 | 60.30592 | 5.21396 | 177 ft | 13 kts | 169° |
| 2026-04-30 09:28 | 60.30585 | 5.21399 | 177 ft | 0 kts | 170° |
| 2026-04-30 09:28 | 60.30572 | 5.21403 | 177 ft | 12 kts | 170° |
| 2026-04-30 09:28 | 60.30231 | 5.21515 | 167 ft | 87 kts | 171° |
| 2026-04-30 09:29 | 60.29426 | 5.21785 | 153 ft | 144 kts | 171° |
| 2026-04-30 09:29 | 60.28349 | 5.22089 | 590 ft | 155 kts | 172° |
| 2026-04-30 09:29 | 60.27268 | 5.22452 | 1292 ft | 158 kts | 171° |
| 2026-04-30 09:29 | 60.26144 | 5.22842 | 1809 ft | 173 kts | 171° |
| 2026-04-30 09:30 | 60.24902 | 5.23268 | 2133 ft | 195 kts | 171° |
| 2026-04-30 09:30 | 60.23494 | 5.23744 | 2482 ft | 214 kts | 171° |
| 2026-04-30 09:30 | 60.21946 | 5.24269 | 2933 ft | 236 kts | 171° |
| 2026-04-30 09:30 | 60.20258 | 5.24842 | 3513 ft | 253 kts | 171° |
| 2026-04-30 09:31 | 60.18499 | 5.25434 | 4385 ft | 257 kts | 171° |
| 2026-04-30 09:31 | 60.16769 | 5.26423 | 5268 ft | 264 kts | 154° |
| 2026-04-30 09:31 | 60.15350 | 5.28827 | 6085 ft | 274 kts | 127° |
| 2026-04-30 09:31 | 60.14572 | 5.32378 | 6763 ft | 286 kts | 108° |
| 2026-04-30 09:32 | 60.14065 | 5.36205 | 6994 ft | 289 kts | 107° |
| 2026-04-30 09:32 | 60.13577 | 5.40136 | 7779 ft | 291 kts | 106° |
| 2026-04-30 09:32 | 60.13089 | 5.44109 | 8605 ft | 295 kts | 106° |
| 2026-04-30 09:32 | 60.12589 | 5.48138 | 9403 ft | 299 kts | 106° |
| 2026-04-30 09:33 | 60.12073 | 5.52215 | 10197 ft | 304 kts | 106° |
| 2026-04-30 09:33 | 60.11535 | 5.56394 | 10706 ft | 319 kts | 106° |
| 2026-04-30 09:33 | 60.10953 | 5.60854 | 10929 ft | 342 kts | 106° |
| 2026-04-30 09:33 | 60.10330 | 5.65613 | 11262 ft | 359 kts | 106° |
| 2026-04-30 09:34 | 60.09699 | 5.70432 | 11885 ft | 365 kts | 106° |
| 2026-04-30 09:34 | 60.09049 | 5.75378 | 12591 ft | 368 kts | 106° |
| 2026-04-30 09:34 | 60.08391 | 5.80365 | 13301 ft | 372 kts | 106° |
| 2026-04-30 09:34 | 60.07726 | 5.85390 | 14002 ft | 375 kts | 106° |
| 2026-04-30 09:35 | 60.07053 | 5.90472 | 14662 ft | 378 kts | 106° |
| 2026-04-30 09:35 | 60.06604 | 5.93864 | 15077 ft | 380 kts | 106° |
| 2026-04-30 09:35 | 60.05701 | 6.00676 | 15910 ft | 384 kts | 106° |
| 2026-04-30 09:35 | 60.05008 | 6.05862 | 16518 ft | 387 kts | 106° |
| 2026-04-30 09:36 | 60.04303 | 6.11085 | 17143 ft | 390 kts | 107° |
| 2026-04-30 09:36 | 60.03590 | 6.16337 | 17739 ft | 393 kts | 106° |
| 2026-04-30 09:36 | 60.03104 | 6.19916 | 18134 ft | 395 kts | 107° |
| 2026-04-30 09:36 | 60.02255 | 6.25064 | 18704 ft | 397 kts | 116° |
| 2026-04-30 09:37 | 60.00886 | 6.29848 | 19194 ft | 397 kts | 128° |
| 2026-04-30 09:37 | 59.99036 | 6.33960 | 19679 ft | 398 kts | 140° |
| 2026-04-30 09:37 | 59.96793 | 6.37202 | 20144 ft | 398 kts | 153° |
| 2026-04-30 09:37 | 59.94257 | 6.39432 | 20596 ft | 399 kts | 164° |
| 2026-04-30 09:38 | 59.91602 | 6.41116 | 21058 ft | 402 kts | 165° |
| 2026-04-30 09:38 | 59.88957 | 6.42781 | 21521 ft | 405 kts | 165° |
| 2026-04-30 09:38 | 59.86252 | 6.44486 | 21963 ft | 409 kts | 165° |
| 2026-04-30 09:38 | 59.83531 | 6.46207 | 22428 ft | 412 kts | 165° |
| 2026-04-30 09:39 | 59.80791 | 6.47942 | 22852 ft | 415 kts | 164° |
| 2026-04-30 09:39 | 59.78026 | 6.49691 | 23272 ft | 418 kts | 164° |
| 2026-04-30 09:39 | 59.76317 | 6.50774 | 23553 ft | 420 kts | 164° |
| 2026-04-30 09:39 | 59.73912 | 6.52293 | 23933 ft | 423 kts | 165° |
| 2026-04-30 09:40 | 59.71095 | 6.54067 | 24311 ft | 426 kts | 165° |
| 2026-04-30 09:40 | 59.68253 | 6.55851 | 24677 ft | 429 kts | 165° |
| 2026-04-30 09:40 | 59.65433 | 6.57616 | 25044 ft | 431 kts | 164° |
| 2026-04-30 09:40 | 59.62566 | 6.59408 | 25405 ft | 434 kts | 164° |
| 2026-04-30 09:41 | 59.59678 | 6.61210 | 25748 ft | 436 kts | 164° |
| 2026-04-30 09:41 | 59.56775 | 6.63020 | 26097 ft | 439 kts | 164° |
| 2026-04-30 09:41 | 59.53849 | 6.64840 | 26450 ft | 441 kts | 164° |
| 2026-04-30 09:41 | 59.50914 | 6.66664 | 26796 ft | 444 kts | 164° |
| 2026-04-30 09:42 | 59.47957 | 6.68494 | 27140 ft | 446 kts | 164° |
| 2026-04-30 09:42 | 59.44982 | 6.70337 | 27484 ft | 449 kts | 164° |
| 2026-04-30 09:42 | 59.41998 | 6.72185 | 27827 ft | 451 kts | 164° |
| 2026-04-30 09:42 | 59.39031 | 6.74019 | 28147 ft | 454 kts | 164° |
| 2026-04-30 09:43 | 59.36012 | 6.75880 | 28462 ft | 456 kts | 164° |
| 2026-04-30 09:43 | 59.32975 | 6.77747 | 28759 ft | 459 kts | 164° |
| 2026-04-30 09:43 | 59.29920 | 6.79625 | 29070 ft | 461 kts | 164° |
| 2026-04-30 09:43 | 59.26847 | 6.81511 | 29362 ft | 463 kts | 164° |
| 2026-04-30 09:44 | 59.23769 | 6.83393 | 29642 ft | 465 kts | 164° |
| 2026-04-30 09:44 | 59.20668 | 6.85278 | 29921 ft | 468 kts | 164° |
| 2026-04-30 09:44 | 59.17559 | 6.87165 | 30193 ft | 470 kts | 164° |
| 2026-04-30 09:44 | 59.14424 | 6.89068 | 30465 ft | 472 kts | 164° |
| 2026-04-30 09:45 | 59.11289 | 6.90973 | 30777 ft | 472 kts | 164° |
| 2026-04-30 09:45 | 59.08157 | 6.92864 | 31120 ft | 471 kts | 164° |
| 2026-04-30 09:45 | 59.05063 | 6.94728 | 31443 ft | 470 kts | 164° |
| 2026-04-30 09:45 | 59.01941 | 6.96609 | 31772 ft | 470 kts | 164° |
| 2026-04-30 09:46 | 58.98817 | 6.98490 | 32106 ft | 469 kts | 163° |
| 2026-04-30 09:46 | 58.95696 | 7.00361 | 32434 ft | 469 kts | 163° |
| 2026-04-30 09:46 | 58.92577 | 7.02223 | 32774 ft | 468 kts | 163° |
| 2026-04-30 09:46 | 58.89471 | 7.04085 | 33104 ft | 468 kts | 163° |
| 2026-04-30 09:47 | 58.86353 | 7.05952 | 33419 ft | 467 kts | 163° |
| 2026-04-30 09:47 | 58.83289 | 7.07781 | 33740 ft | 467 kts | 163° |
| 2026-04-30 09:47 | 58.80182 | 7.09636 | 34075 ft | 466 kts | 163° |
| 2026-04-30 09:47 | 58.77080 | 7.11479 | 34416 ft | 465 kts | 163° |
| 2026-04-30 09:48 | 58.73985 | 7.13311 | 34713 ft | 465 kts | 163° |
| 2026-04-30 09:48 | 58.70895 | 7.15136 | 35008 ft | 464 kts | 163° |
| 2026-04-30 09:48 | 58.67812 | 7.16953 | 35302 ft | 463 kts | 163° |
| 2026-04-30 09:48 | 58.64736 | 7.18763 | 35591 ft | 462 kts | 163° |
| 2026-04-30 09:49 | 58.61712 | 7.20540 | 35862 ft | 461 kts | 163° |
| 2026-04-30 09:49 | 58.58648 | 7.22340 | 36130 ft | 460 kts | 163° |
| 2026-04-30 09:49 | 58.55595 | 7.24135 | 36386 ft | 459 kts | 163° |
| 2026-04-30 09:49 | 58.52544 | 7.25928 | 36646 ft | 458 kts | 163° |
| 2026-04-30 09:50 | 58.49493 | 7.27718 | 36889 ft | 458 kts | 163° |
| 2026-04-30 09:50 | 58.46445 | 7.29500 | 37136 ft | 457 kts | 163° |
| 2026-04-30 09:50 | 58.43404 | 7.31265 | 37360 ft | 456 kts | 163° |
| 2026-04-30 09:50 | 58.40363 | 7.33022 | 37430 ft | 456 kts | 163° |
| 2026-04-30 09:51 | 58.34327 | 7.36502 | 37429 ft | 456 kts | 163° |
| 2026-04-30 09:51 | 58.28258 | 7.40002 | 37433 ft | 456 kts | 163° |
| 2026-04-30 09:52 | 58.22182 | 7.43498 | 37439 ft | 456 kts | 163° |
| 2026-04-30 09:52 | 58.16108 | 7.46984 | 37444 ft | 456 kts | 163° |
| 2026-04-30 09:53 | 58.10033 | 7.50462 | 37448 ft | 456 kts | 163° |
| 2026-04-30 09:53 | 58.03984 | 7.53906 | 37450 ft | 456 kts | 163° |
| 2026-04-30 09:54 | 57.97905 | 7.57350 | 37449 ft | 457 kts | 163° |
| 2026-04-30 09:54 | 57.91806 | 7.60795 | 37448 ft | 458 kts | 163° |
| 2026-04-30 09:55 | 57.85696 | 7.64230 | 37451 ft | 459 kts | 164° |
| 2026-04-30 09:55 | 57.79609 | 7.67647 | 37456 ft | 460 kts | 163° |
| 2026-04-30 09:56 | 57.73469 | 7.71077 | 37468 ft | 460 kts | 164° |
| 2026-04-30 09:56 | 57.67327 | 7.74500 | 37476 ft | 461 kts | 164° |
| 2026-04-30 09:57 | 57.61547 | 7.77712 | 37486 ft | 461 kts | 164° |
| 2026-04-30 09:57 | 57.55393 | 7.81119 | 37492 ft | 461 kts | 164° |
| 2026-04-30 09:58 | 57.49285 | 7.84494 | 37498 ft | 461 kts | 164° |
| 2026-04-30 09:58 | 57.43137 | 7.87871 | 37503 ft | 460 kts | 164° |
| 2026-04-30 09:59 | 57.30836 | 7.94589 | 37514 ft | 460 kts | 164° |
| 2026-04-30 10:00 | 57.21668 | 7.99569 | 37523 ft | 460 kts | 164° |
| 2026-04-30 10:01 | 57.12449 | 8.04560 | 37526 ft | 459 kts | 164° |
| 2026-04-30 10:02 | 57.03291 | 8.09482 | 37525 ft | 459 kts | 164° |
| 2026-04-30 10:02 | 56.97166 | 8.12753 | 37543 ft | 458 kts | 164° |
| 2026-04-30 10:03 | 56.91426 | 8.15805 | 37546 ft | 458 kts | 164° |
| 2026-04-30 10:03 | 56.85303 | 8.19065 | 37545 ft | 458 kts | 164° |
| 2026-04-30 10:04 | 56.79184 | 8.22322 | 37547 ft | 458 kts | 164° |
| 2026-04-30 10:04 | 56.73099 | 8.25526 | 37552 ft | 457 kts | 164° |
| 2026-04-30 10:05 | 56.66986 | 8.28742 | 37548 ft | 457 kts | 164° |
| 2026-04-30 10:05 | 56.60880 | 8.31954 | 37552 ft | 456 kts | 164° |
| 2026-04-30 10:06 | 56.54811 | 8.35127 | 37550 ft | 456 kts | 164° |
| 2026-04-30 10:06 | 56.48717 | 8.38297 | 37550 ft | 456 kts | 164° |
| 2026-04-30 10:07 | 56.42616 | 8.41459 | 37546 ft | 456 kts | 164° |
| 2026-04-30 10:07 | 56.36519 | 8.44603 | 37551 ft | 456 kts | 164° |
| 2026-04-30 10:08 | 56.30418 | 8.47754 | 37545 ft | 456 kts | 163° |
| 2026-04-30 10:08 | 56.24318 | 8.50903 | 37550 ft | 456 kts | 163° |
| 2026-04-30 10:09 | 56.18259 | 8.54011 | 37544 ft | 456 kts | 163° |
| 2026-04-30 10:09 | 56.12146 | 8.57133 | 37543 ft | 456 kts | 163° |
| 2026-04-30 10:10 | 56.06028 | 8.60248 | 37541 ft | 457 kts | 163° |
| 2026-04-30 10:10 | 55.99908 | 8.63347 | 37535 ft | 457 kts | 163° |
| 2026-04-30 10:11 | 55.93827 | 8.66415 | 37531 ft | 457 kts | 163° |
| 2026-04-30 10:11 | 55.87708 | 8.69514 | 37531 ft | 457 kts | 163° |
| 2026-04-30 10:12 | 55.81577 | 8.72612 | 37527 ft | 458 kts | 163° |
| 2026-04-30 10:12 | 55.75435 | 8.75679 | 37531 ft | 459 kts | 163° |
| 2026-04-30 10:13 | 55.69285 | 8.78734 | 37526 ft | 459 kts | 163° |
| 2026-04-30 10:13 | 55.63171 | 8.81778 | 37548 ft | 460 kts | 163° |
| 2026-04-30 10:14 | 55.57000 | 8.84842 | 37542 ft | 460 kts | 163° |
| 2026-04-30 10:14 | 55.47737 | 8.89420 | 37541 ft | 461 kts | 162° |
| 2026-04-30 10:15 | 55.41546 | 8.92467 | 37522 ft | 462 kts | 163° |
| 2026-04-30 10:15 | 55.35388 | 8.95478 | 37525 ft | 463 kts | 163° |
| 2026-04-30 10:16 | 55.29177 | 8.98510 | 37522 ft | 463 kts | 162° |
| 2026-04-30 10:17 | 55.19850 | 9.03074 | 37521 ft | 464 kts | 162° |
| 2026-04-30 10:17 | 55.10501 | 9.07595 | 37527 ft | 465 kts | 162° |
| 2026-04-30 10:18 | 55.04255 | 9.10600 | 37527 ft | 466 kts | 162° |
| 2026-04-30 10:19 | 54.94911 | 9.15078 | 37532 ft | 466 kts | 162° |
| 2026-04-30 10:19 | 54.88650 | 9.18078 | 37538 ft | 467 kts | 163° |
| 2026-04-30 10:20 | 54.84401 | 9.19334 | 37536 ft | 470 kts | 175° |
| 2026-04-30 10:20 | 54.75877 | 9.19417 | 37541 ft | 471 kts | 178° |
| 2026-04-30 10:21 | 54.69300 | 9.19408 | 37539 ft | 472 kts | 178° |
| 2026-04-30 10:21 | 54.62734 | 9.19413 | 37544 ft | 472 kts | 178° |
| 2026-04-30 10:22 | 54.56154 | 9.19408 | 37543 ft | 472 kts | 178° |
| 2026-04-30 10:22 | 54.49580 | 9.19403 | 37545 ft | 472 kts | 178° |
| 2026-04-30 10:23 | 54.43042 | 9.19399 | 37546 ft | 473 kts | 178° |
| 2026-04-30 10:23 | 54.36462 | 9.19392 | 37532 ft | 473 kts | 178° |
| 2026-04-30 10:24 | 54.29884 | 9.19385 | 37529 ft | 473 kts | 178° |
| 2026-04-30 10:24 | 54.23293 | 9.19391 | 37531 ft | 473 kts | 178° |
| 2026-04-30 10:25 | 54.16712 | 9.19391 | 37531 ft | 473 kts | 178° |
| 2026-04-30 10:25 | 54.10122 | 9.19384 | 37532 ft | 473 kts | 178° |
| 2026-04-30 10:26 | 54.03566 | 9.19379 | 37533 ft | 473 kts | 178° |
| 2026-04-30 10:26 | 53.96973 | 9.19381 | 37535 ft | 474 kts | 177° |
| 2026-04-30 10:27 | 53.90375 | 9.19385 | 37534 ft | 474 kts | 177° |
| 2026-04-30 10:27 | 53.83778 | 9.19384 | 37541 ft | 474 kts | 177° |
| 2026-04-30 10:28 | 53.77176 | 9.19386 | 37530 ft | 474 kts | 177° |
| 2026-04-30 10:28 | 53.70616 | 9.19387 | 37533 ft | 474 kts | 177° |
| 2026-04-30 10:29 | 53.64000 | 9.19371 | 37532 ft | 475 kts | 177° |
| 2026-04-30 10:29 | 53.57382 | 9.19357 | 37539 ft | 475 kts | 177° |
| 2026-04-30 10:30 | 53.50816 | 9.19355 | 37538 ft | 475 kts | 177° |
| 2026-04-30 10:30 | 53.44201 | 9.19358 | 37541 ft | 475 kts | 177° |
| 2026-04-30 10:31 | 53.37587 | 9.19350 | 37537 ft | 475 kts | 177° |
| 2026-04-30 10:31 | 53.30971 | 9.19356 | 37543 ft | 475 kts | 177° |
| 2026-04-30 10:32 | 53.24397 | 9.19365 | 37539 ft | 476 kts | 177° |
| 2026-04-30 10:32 | 53.17775 | 9.19359 | 37541 ft | 476 kts | 177° |
| 2026-04-30 10:33 | 53.11149 | 9.19344 | 37537 ft | 476 kts | 177° |
| 2026-04-30 10:33 | 53.04519 | 9.19340 | 37541 ft | 476 kts | 177° |
| 2026-04-30 10:34 | 52.97929 | 9.19341 | 37537 ft | 476 kts | 177° |
| 2026-04-30 10:34 | 52.91296 | 9.19340 | 37539 ft | 476 kts | 176° |
| 2026-04-30 10:35 | 52.84660 | 9.19344 | 37532 ft | 477 kts | 177° |
| 2026-04-30 10:35 | 52.78021 | 9.19347 | 37533 ft | 477 kts | 176° |
| 2026-04-30 10:36 | 52.71424 | 9.19338 | 37530 ft | 477 kts | 177° |
| 2026-04-30 10:36 | 52.64791 | 9.19331 | 37530 ft | 477 kts | 176° |
| 2026-04-30 10:37 | 52.58152 | 9.19334 | 37529 ft | 477 kts | 176° |
| 2026-04-30 10:37 | 52.51512 | 9.19330 | 37532 ft | 477 kts | 176° |
| 2026-04-30 10:38 | 52.44919 | 9.19331 | 37530 ft | 476 kts | 176° |
| 2026-04-30 10:38 | 52.38293 | 9.19337 | 37515 ft | 476 kts | 176° |
| 2026-04-30 10:39 | 52.31659 | 9.19337 | 37507 ft | 476 kts | 177° |
| 2026-04-30 10:39 | 52.25067 | 9.19328 | 37506 ft | 476 kts | 177° |
| 2026-04-30 10:40 | 52.18445 | 9.19315 | 37506 ft | 476 kts | 177° |
| 2026-04-30 10:40 | 52.11808 | 9.19316 | 37512 ft | 476 kts | 177° |
| 2026-04-30 10:41 | 52.05171 | 9.19318 | 37510 ft | 476 kts | 177° |
| 2026-04-30 10:41 | 51.98587 | 9.19319 | 37515 ft | 476 kts | 177° |
| 2026-04-30 10:42 | 51.91992 | 9.18045 | 37505 ft | 481 kts | 195° |
| 2026-04-30 10:42 | 51.88867 | 9.16089 | 37506 ft | 483 kts | 206° |
| 2026-04-30 10:42 | 51.85992 | 9.13275 | 37503 ft | 483 kts | 217° |
| 2026-04-30 10:43 | 51.81257 | 9.05686 | 37493 ft | 482 kts | 230° |
| 2026-04-30 10:43 | 51.76869 | 8.97562 | 37482 ft | 483 kts | 230° |
| 2026-04-30 10:44 | 51.72437 | 8.89385 | 37478 ft | 483 kts | 230° |
| 2026-04-30 10:44 | 51.68758 | 8.82600 | 37477 ft | 483 kts | 230° |
| 2026-04-30 10:45 | 51.64323 | 8.74454 | 37473 ft | 483 kts | 229° |
| 2026-04-30 10:45 | 51.58432 | 8.66282 | 37476 ft | 482 kts | 210° |
| 2026-04-30 10:46 | 51.53571 | 8.61921 | 37468 ft | 482 kts | 208° |
| 2026-04-30 10:46 | 51.47706 | 8.56658 | 37459 ft | 482 kts | 208° |
| 2026-04-30 10:47 | 51.41854 | 8.51401 | 37464 ft | 482 kts | 208° |
| 2026-04-30 10:47 | 51.38933 | 8.48790 | 37015 ft | 480 kts | 208° |
| 2026-04-30 10:47 | 51.35998 | 8.46172 | 36294 ft | 482 kts | 207° |
| 2026-04-30 10:48 | 51.33095 | 8.43592 | 35535 ft | 485 kts | 207° |
| 2026-04-30 10:48 | 51.30246 | 8.40663 | 34758 ft | 490 kts | 216° |
| 2026-04-30 10:48 | 51.27695 | 8.37039 | 33855 ft | 495 kts | 226° |
| 2026-04-30 10:48 | 51.25517 | 8.32752 | 32948 ft | 498 kts | 237° |
| 2026-04-30 10:49 | 51.23736 | 8.28003 | 32070 ft | 500 kts | 241° |
| 2026-04-30 10:49 | 51.22008 | 8.23196 | 31407 ft | 497 kts | 241° |
| 2026-04-30 10:49 | 51.20278 | 8.18445 | 30849 ft | 493 kts | 240° |
| 2026-04-30 10:49 | 51.18556 | 8.13750 | 30232 ft | 488 kts | 240° |
| 2026-04-30 10:50 | 51.16868 | 8.09161 | 29620 ft | 484 kts | 240° |
| 2026-04-30 10:50 | 51.15154 | 8.04507 | 29027 ft | 478 kts | 240° |
| 2026-04-30 10:50 | 51.13499 | 8.00016 | 28481 ft | 473 kts | 240° |
| 2026-04-30 10:50 | 51.11843 | 7.95516 | 27913 ft | 468 kts | 240° |
| 2026-04-30 10:51 | 51.10207 | 7.91071 | 27383 ft | 463 kts | 240° |
| 2026-04-30 10:51 | 51.08584 | 7.86667 | 26838 ft | 458 kts | 240° |
| 2026-04-30 10:51 | 51.07087 | 7.82227 | 26336 ft | 452 kts | 248° |
| 2026-04-30 10:51 | 51.06030 | 7.77556 | 25821 ft | 445 kts | 257° |
| 2026-04-30 10:52 | 51.05357 | 7.72847 | 25310 ft | 440 kts | 260° |
| 2026-04-30 10:52 | 51.04703 | 7.68128 | 24809 ft | 435 kts | 259° |
| 2026-04-30 10:52 | 51.04044 | 7.63452 | 24316 ft | 431 kts | 259° |
| 2026-04-30 10:52 | 51.03387 | 7.58833 | 23804 ft | 427 kts | 259° |
| 2026-04-30 10:53 | 51.02732 | 7.54251 | 23229 ft | 423 kts | 259° |
| 2026-04-30 10:53 | 51.02081 | 7.49717 | 22677 ft | 419 kts | 259° |
| 2026-04-30 10:53 | 51.01436 | 7.45217 | 22146 ft | 416 kts | 259° |
| 2026-04-30 10:53 | 51.00629 | 7.40822 | 21615 ft | 415 kts | 250° |
| 2026-04-30 10:54 | 50.99350 | 7.36734 | 21097 ft | 413 kts | 238° |
| 2026-04-30 10:54 | 50.97640 | 7.33087 | 20596 ft | 410 kts | 227° |
| 2026-04-30 10:54 | 50.95836 | 7.29731 | 20412 ft | 399 kts | 238° |
| 2026-04-30 10:54 | 50.94838 | 7.25755 | 20260 ft | 383 kts | 264° |
| 2026-04-30 10:55 | 50.94927 | 7.21648 | 19840 ft | 365 kts | 290° |
| 2026-04-30 10:55 | 50.96054 | 7.18220 | 19362 ft | 342 kts | 317° |
| 2026-04-30 10:55 | 50.97872 | 7.15979 | 18796 ft | 327 kts | 335° |
| 2026-04-30 10:55 | 50.99264 | 7.14726 | 18334 ft | 324 kts | 335° |
| 2026-04-30 10:56 | 51.01119 | 7.13057 | 17699 ft | 321 kts | 335° |
| 2026-04-30 10:56 | 51.03056 | 7.11313 | 17035 ft | 319 kts | 334° |
| 2026-04-30 10:56 | 51.04974 | 7.09580 | 16393 ft | 317 kts | 333° |
| 2026-04-30 10:56 | 51.06756 | 7.07594 | 15773 ft | 318 kts | 324° |
| 2026-04-30 10:57 | 51.08423 | 7.05289 | 15153 ft | 318 kts | 320° |
| 2026-04-30 10:57 | 51.10017 | 7.02859 | 14549 ft | 316 kts | 319° |
| 2026-04-30 10:57 | 51.11585 | 7.00405 | 13920 ft | 315 kts | 319° |
| 2026-04-30 10:57 | 51.13148 | 6.97977 | 13247 ft | 313 kts | 319° |
| 2026-04-30 10:58 | 51.14722 | 6.95580 | 12594 ft | 311 kts | 320° |
| 2026-04-30 10:58 | 51.16294 | 6.93231 | 11947 ft | 309 kts | 320° |
| 2026-04-30 10:58 | 51.17866 | 6.90906 | 11329 ft | 307 kts | 320° |
| 2026-04-30 10:58 | 51.19410 | 6.88637 | 10721 ft | 304 kts | 321° |
| 2026-04-30 10:59 | 51.20945 | 6.86389 | 10437 ft | 296 kts | 321° |
| 2026-04-30 10:59 | 51.22461 | 6.84169 | 10355 ft | 294 kts | 321° |
| 2026-04-30 10:59 | 51.23962 | 6.81967 | 9824 ft | 291 kts | 321° |
| 2026-04-30 10:59 | 51.25257 | 6.79493 | 9187 ft | 294 kts | 301° |
| 2026-04-30 11:00 | 51.25887 | 6.76396 | 8539 ft | 296 kts | 276° |
| 2026-04-30 11:00 | 51.25688 | 6.73149 | 7899 ft | 295 kts | 250° |
| 2026-04-30 11:00 | 51.24700 | 6.70331 | 7277 ft | 290 kts | 225° |
| 2026-04-30 11:00 | 51.23164 | 6.68403 | 6670 ft | 282 kts | 202° |
| 2026-04-30 11:01 | 51.21326 | 6.67555 | 6052 ft | 271 kts | 179° |
| 2026-04-30 11:01 | 51.19497 | 6.67830 | 5487 ft | 259 kts | 158° |
| 2026-04-30 11:01 | 51.17927 | 6.69058 | 5050 ft | 246 kts | 139° |
| 2026-04-30 11:01 | 51.16682 | 6.70863 | 4974 ft | 235 kts | 133° |
| 2026-04-30 11:02 | 51.15519 | 6.72631 | 4987 ft | 229 kts | 133° |
| 2026-04-30 11:02 | 51.14387 | 6.74350 | 4996 ft | 228 kts | 133° |
| 2026-04-30 11:02 | 51.13226 | 6.76078 | 4986 ft | 228 kts | 134° |
| 2026-04-30 11:02 | 51.12060 | 6.77796 | 4991 ft | 228 kts | 134° |
| 2026-04-30 11:03 | 51.10893 | 6.79514 | 4990 ft | 228 kts | 134° |
| 2026-04-30 11:03 | 51.09728 | 6.81227 | 4986 ft | 228 kts | 134° |
| 2026-04-30 11:03 | 51.08561 | 6.82942 | 4987 ft | 228 kts | 134° |
| 2026-04-30 11:04 | 51.06225 | 6.86374 | 4990 ft | 228 kts | 134° |
| 2026-04-30 11:04 | 51.05082 | 6.88049 | 4843 ft | 220 kts | 134° |
| 2026-04-30 11:04 | 51.03973 | 6.89674 | 4598 ft | 214 kts | 133° |
| 2026-04-30 11:04 | 51.02893 | 6.91257 | 4320 ft | 214 kts | 133° |
| 2026-04-30 11:05 | 51.01800 | 6.92858 | 4027 ft | 212 kts | 134° |
| 2026-04-30 11:05 | 51.00730 | 6.94423 | 3753 ft | 206 kts | 134° |
| 2026-04-30 11:05 | 50.99687 | 6.95948 | 3479 ft | 202 kts | 134° |
| 2026-04-30 11:05 | 50.98667 | 6.97438 | 3205 ft | 197 kts | 134° |
| 2026-04-30 11:06 | 50.97673 | 6.98889 | 2940 ft | 192 kts | 134° |
| 2026-04-30 11:06 | 50.96711 | 7.00293 | 2708 ft | 182 kts | 134° |
| 2026-04-30 11:06 | 50.95796 | 7.01626 | 2458 ft | 175 kts | 134° |
| 2026-04-30 11:06 | 50.94920 | 7.02904 | 2226 ft | 172 kts | 134° |
| 2026-04-30 11:07 | 50.94058 | 7.04159 | 2000 ft | 164 kts | 133° |
| 2026-04-30 11:07 | 50.93219 | 7.05382 | 1766 ft | 163 kts | 132° |
| 2026-04-30 11:07 | 50.92390 | 7.06588 | 1550 ft | 156 kts | 132° |
| 2026-04-30 11:07 | 50.91628 | 7.07693 | 1304 ft | 142 kts | 133° |
| 2026-04-30 11:08 | 50.90916 | 7.08732 | 1069 ft | 135 kts | 133° |
| 2026-04-30 11:08 | 50.90233 | 7.09726 | 847 ft | 132 kts | 134° |
| 2026-04-30 11:08 | 50.89560 | 7.10708 | 691 ft | 130 kts | 135° |
| 2026-04-30 11:08 | 50.88894 | 7.11678 | 485 ft | 130 kts | 135° |
| 2026-04-30 11:09 | 50.88246 | 7.12618 | 320 ft | 128 kts | 135° |
| 2026-04-30 11:09 | 50.87612 | 7.13545 | 239 ft | 112 kts | 137° |
| 2026-04-30 11:09 | 50.87163 | 7.14191 | 248 ft | 62 kts | 137° |
| 2026-04-30 11:09 | 50.86966 | 7.14476 | 257 ft | 30 kts | 137° |
| 2026-04-30 11:10 | 50.86884 | 7.14472 | 260 ft | 14 kts | 251° |
| 2026-04-30 11:10 | 50.86883 | 7.14326 | 258 ft | 14 kts | 283° |
| 2026-04-30 11:10 | 50.86904 | 7.14167 | 255 ft | 15 kts | 279° |
| 2026-04-30 11:10 | 50.86922 | 7.14005 | 252 ft | 16 kts | 279° |
| 2026-04-30 11:11 | 50.86979 | 7.13843 | 245 ft | 19 kts | 319° |
| 2026-04-30 11:11 | 50.87081 | 7.13695 | 241 ft | 20 kts | 317° |
| 2026-04-30 11:11 | 50.87186 | 7.13544 | 237 ft | 21 kts | 317° |
| 2026-04-30 11:11 | 50.87295 | 7.13385 | 232 ft | 22 kts | 317° |
| 2026-04-30 11:12 | 50.87403 | 7.13230 | 232 ft | 20 kts | 318° |
| 2026-04-30 11:12 | 50.87503 | 7.13085 | 232 ft | 19 kts | 317° |
| 2026-04-30 11:12 | 50.87595 | 7.12952 | 232 ft | 17 kts | 317° |
| 2026-04-30 11:12 | 50.87681 | 7.12827 | 232 ft | 16 kts | 317° |
| 2026-04-30 11:13 | 50.87762 | 7.12709 | 232 ft | 15 kts | 317° |
| 2026-04-30 11:13 | 50.87831 | 7.12621 | 232 ft | 7 kts | 326° |
| 2026-04-30 11:13 | 50.87834 | 7.12618 | 232 ft | 1 kts | 324° |
| 2026-04-30 11:13 | 50.87851 | 7.12566 | 232 ft | 5 kts | 285° |
| 2026-04-30 11:14 | 50.87865 | 7.12504 | 234 ft | 7 kts | 289° |
| 2026-04-30 11:14 | 50.87872 | 7.12470 | 232 ft | 1 kts | 288° |
| 2026-04-30 11:14 | 50.87874 | 7.12461 | 232 ft | 0 kts | 288° |